Time;durP1;ratioP1;P1;durP2;ratioP2;P2;SDS_P1;SDS_P2;PMS_P1;PMS_P2;Temp;Humidity;BMP_temperature;BMP_pressure;BME280_temperature;BME280_humidity;BME280_pressure;Samples;Min_cycle;Max_cycle;Signal;HPM_P1;HPM_P2
2023/07/20 00:01:22;;;;;;;3.07;0.70;;;16.10;99.90;;;;;;5041371;28;20229;-86
2023/07/20 00:03:54;;;;;;;3.63;0.77;;;16.10;99.90;;;;;;5032596;28;20179;-85
2023/07/20 00:06:27;;;;;;;1.80;0.90;;;16.10;99.90;;;;;;5047786;28;20307;-85
2023/07/20 00:08:53;;;;;;;3.73;0.90;;;16.10;99.90;;;;;;5050743;28;20988;-85
2023/07/20 00:11:19;;;;;;;3.47;2.67;;;16.10;99.90;;;;;;5052725;28;20414;-85
2023/07/20 00:13:44;;;;;;;2.50;0.73;;;16.10;99.90;;;;;;5052585;28;20516;-86
2023/07/20 00:16:10;;;;;;;3.87;1.00;;;16.10;99.90;;;;;;5052593;28;20248;-87
2023/07/20 00:18:35;;;;;;;1.30;0.70;;;16.10;99.90;;;;;;5052537;28;20215;-85
2023/07/20 00:21:01;;;;;;;2.63;1.00;;;16.10;99.90;;;;;;5055034;28;20574;-86
2023/07/20 00:23:27;;;;;;;2.23;0.73;;;16.10;99.90;;;;;;5055329;28;20178;-80
2023/07/20 00:25:52;;;;;;;1.57;0.70;;;16.10;99.90;;;;;;5056596;28;20417;-80
2023/07/20 00:28:18;;;;;;;1.63;1.10;;;16.20;99.90;;;;;;5056636;28;20173;-79
2023/07/20 00:30:44;;;;;;;2.40;0.73;;;16.20;99.90;;;;;;5056537;28;20171;-79
2023/07/20 00:33:11;;;;;;;2.33;1.30;;;16.20;99.90;;;;;;5056558;28;20175;-79
2023/07/20 00:35:39;;;;;;;3.47;1.17;;;16.30;99.90;;;;;;5056186;28;20190;-80
2023/07/20 00:38:05;;;;;;;3.50;1.50;;;16.30;99.90;;;;;;5055747;28;20907;-79
2023/07/20 00:40:40;;;;;;;1.83;1.17;;;16.40;99.90;;;;;;5056318;28;20509;-79
2023/07/20 00:43:06;;;;;;;2.97;1.47;;;16.40;99.90;;;;;;5056338;28;20179;-80
2023/07/20 00:45:33;;;;;;;1.97;1.43;;;16.40;99.90;;;;;;5055061;28;20424;-79
2023/07/20 00:48:00;;;;;;;3.33;1.33;;;16.40;99.90;;;;;;5056159;28;20483;-82
2023/07/20 00:50:27;;;;;;;2.47;1.60;;;16.50;99.90;;;;;;5056206;28;20425;-84
2023/07/20 00:52:53;;;;;;;1.90;0.97;;;16.50;99.90;;;;;;5055732;28;20409;-79
2023/07/20 00:55:19;;;;;;;2.10;0.90;;;16.50;99.90;;;;;;5056078;28;20406;-83
2023/07/20 00:57:45;;;;;;;3.80;1.73;;;16.60;99.90;;;;;;5055943;28;20285;-81
2023/07/20 01:00:11;;;;;;;3.80;1.50;;;16.60;99.90;;;;;;5055908;28;20182;-85
2023/07/20 01:02:36;;;;;;;3.80;1.37;;;16.60;99.90;;;;;;5055755;28;20223;-84
2023/07/20 01:05:03;;;;;;;2.47;0.80;;;16.50;99.90;;;;;;5055868;28;20433;-86
2023/07/20 01:07:38;;;;;;;1.70;0.80;;;16.60;99.90;;;;;;5055171;28;20249;-78
2023/07/20 01:10:17;;;;;;;4.43;0.87;;;16.50;99.90;;;;;;5055768;28;20897;-78
2023/07/20 01:12:47;;;;;;;1.70;1.20;;;16.40;99.90;;;;;;5055639;28;20409;-79
2023/07/20 01:15:13;;;;;;;3.70;1.50;;;16.40;99.90;;;;;;5055676;28;20414;-81
2023/07/20 01:17:39;;;;;;;1.57;0.77;;;16.50;99.90;;;;;;5055424;28;20472;-79
2023/07/20 01:20:07;;;;;;;2.90;0.80;;;16.50;99.90;;;;;;5055549;28;20417;-80
2023/07/20 01:22:52;;;;;;;2.37;1.30;;;16.50;99.90;;;;;;5055151;28;20169;-80
2023/07/20 01:25:36;;;;;;;2.93;0.80;;;16.50;99.90;;;;;;5055521;28;20413;-80
2023/07/20 01:28:23;;;;;;;3.43;0.93;;;16.60;99.90;;;;;;5055487;28;20414;-80
2023/07/20 01:31:10;;;;;;;3.13;1.37;;;16.60;99.90;;;;;;5055063;28;20416;-80
2023/07/20 01:33:36;;;;;;;2.97;0.97;;;16.60;99.90;;;;;;5055307;28;20434;-78
2023/07/20 01:36:02;;;;;;;4.40;0.83;;;16.60;99.90;;;;;;5054894;28;20933;-80
2023/07/20 01:38:28;;;;;;;5.27;1.00;;;16.60;99.90;;;;;;5055191;28;20514;-80
2023/07/20 01:40:54;;;;;;;2.80;0.90;;;16.60;99.90;;;;;;5055341;28;20470;-78
2023/07/20 01:43:20;;;;;;;2.77;1.00;;;16.60;99.90;;;;;;5055101;28;20415;-78
2023/07/20 01:45:45;;;;;;;1.70;0.93;;;16.60;99.90;;;;;;5055171;28;20174;-81
2023/07/20 01:48:11;;;;;;;1.93;1.00;;;16.60;99.90;;;;;;5055112;28;20184;-81
2023/07/20 01:50:36;;;;;;;1.30;0.87;;;16.60;99.90;;;;;;5055081;28;20708;-80
2023/07/20 01:53:02;;;;;;;1.87;1.03;;;16.60;99.90;;;;;;5054618;28;20189;-81
2023/07/20 01:55:28;;;;;;;1.53;0.83;;;16.60;99.90;;;;;;5054925;28;20224;-79
2023/07/20 01:57:55;;;;;;;3.80;1.47;;;16.60;99.90;;;;;;5049160;28;20203;-79
2023/07/20 02:00:23;;;;;;;1.57;0.97;;;16.60;99.90;;;;;;5034814;28;20540;-80
2023/07/20 02:02:49;;;;;;;1.57;1.03;;;16.60;99.90;;;;;;5034961;28;20440;-80
2023/07/20 02:05:15;;;;;;;2.30;1.10;;;16.60;99.90;;;;;;5034893;28;20958;-81
2023/07/20 02:07:40;;;;;;;1.23;0.90;;;16.60;99.90;;;;;;5034357;28;20792;-80
2023/07/20 02:10:06;;;;;;;1.70;1.00;;;16.60;99.90;;;;;;5034653;28;20177;-80
2023/07/20 02:12:32;;;;;;;2.20;0.67;;;16.70;99.90;;;;;;5034628;28;20181;-80
2023/07/20 02:14:57;;;;;;;2.00;0.73;;;16.70;99.90;;;;;;5034598;28;20175;-79
2023/07/20 02:17:23;;;;;;;1.80;0.80;;;16.60;99.90;;;;;;5034554;28;20176;-80
2023/07/20 02:19:52;;;;;;;1.33;0.73;;;16.60;99.90;;;;;;5034563;28;20180;-79
2023/07/20 02:22:17;;;;;;;1.23;0.60;;;16.60;99.90;;;;;;5034117;28;20178;-79
2023/07/20 02:24:43;;;;;;;1.50;0.83;;;16.60;99.90;;;;;;5034516;28;20905;-81
2023/07/20 02:27:08;;;;;;;1.20;0.90;;;16.60;99.90;;;;;;5034424;28;20642;-78
2023/07/20 02:29:34;;;;;;;1.97;0.90;;;16.70;99.90;;;;;;5034314;28;20211;-81
2023/07/20 02:31:59;;;;;;;1.97;1.13;;;16.60;99.90;;;;;;5034333;28;20171;-80
2023/07/20 02:34:25;;;;;;;2.80;1.50;;;16.60;99.90;;;;;;5034347;28;20172;-80
2023/07/20 02:36:50;;;;;;;5.90;2.30;;;16.60;99.90;;;;;;5033871;28;20186;-80
2023/07/20 02:39:16;;;;;;;3.73;2.10;;;16.60;99.90;;;;;;5034151;28;20244;-80
2023/07/20 02:41:41;;;;;;;3.47;2.40;;;16.60;99.90;;;;;;5034068;28;20175;-79
2023/07/20 02:44:07;;;;;;;4.47;2.70;;;16.60;99.90;;;;;;5033428;28;20185;-78
2023/07/20 02:46:34;;;;;;;3.10;2.80;;;16.60;99.90;;;;;;5034053;28;20167;-78
2023/07/20 02:48:59;;;;;;;4.10;2.67;;;16.50;99.90;;;;;;5033985;28;20170;-78
2023/07/20 02:51:25;;;;;;;3.83;2.67;;;16.40;99.90;;;;;;5033702;28;20421;-78
2023/07/20 02:53:50;;;;;;;4.33;2.67;;;16.50;99.90;;;;;;5032600;28;20191;-78
2023/07/20 02:56:16;;;;;;;3.27;2.23;;;16.50;99.90;;;;;;5033921;28;20523;-77
2023/07/20 02:58:48;;;;;;;5.93;3.40;;;16.40;99.90;;;;;;5033694;28;20211;-78
2023/07/20 03:01:15;;;;;;;2.63;2.27;;;16.50;99.90;;;;;;5033704;28;20623;-78
2023/07/20 03:03:46;;;;;;;2.23;1.90;;;16.60;99.90;;;;;;5033800;28;20427;-77
2023/07/20 03:06:12;;;;;;;3.90;2.03;;;16.60;99.90;;;;;;5033342;28;20425;-78
2023/07/20 03:08:38;;;;;;;3.90;2.07;;;16.60;99.90;;;;;;5033596;28;20481;-78
2023/07/20 03:11:03;;;;;;;4.93;1.60;;;16.60;99.90;;;;;;5033519;28;20410;-79
2023/07/20 03:13:29;;;;;;;4.00;2.23;;;16.60;99.90;;;;;;5033607;28;20171;-79
2023/07/20 03:15:54;;;;;;;2.47;1.93;;;16.50;99.90;;;;;;5033511;28;20168;-79
2023/07/20 03:18:20;;;;;;;5.10;1.70;;;16.50;99.90;;;;;;5033430;28;20206;-80
2023/07/20 03:20:46;;;;;;;3.83;2.20;;;16.50;99.90;;;;;;5031897;28;20178;-79
2023/07/20 03:23:12;;;;;;;2.60;1.50;;;16.50;99.90;;;;;;5033368;28;20259;-80
2023/07/20 03:25:38;;;;;;;2.27;1.90;;;16.50;99.90;;;;;;5033363;28;20464;-80
2023/07/20 03:28:04;;;;;;;4.27;1.40;;;16.50;99.90;;;;;;5033323;28;20409;-79
2023/07/20 03:30:29;;;;;;;2.53;1.67;;;16.50;99.90;;;;;;5032041;28;20426;-78
2023/07/20 03:32:55;;;;;;;2.70;1.77;;;16.50;99.90;;;;;;5033292;28;20207;-78
2023/07/20 03:35:20;;;;;;;3.00;1.83;;;16.50;99.90;;;;;;5033269;28;20595;-79
2023/07/20 03:37:45;;;;;;;3.10;2.50;;;16.50;99.90;;;;;;5031459;28;20214;-80
2023/07/20 03:40:11;;;;;;;3.30;1.60;;;16.50;99.90;;;;;;5033000;28;20717;-79
2023/07/20 03:42:37;;;;;;;3.27;1.77;;;16.50;99.90;;;;;;5033086;28;20182;-80
2023/07/20 03:45:04;;;;;;;1.90;1.07;;;16.50;99.90;;;;;;5033101;28;20167;-81
2023/07/20 03:47:30;;;;;;;1.90;1.70;;;16.50;99.90;;;;;;5033085;28;20414;-79
2023/07/20 03:49:55;;;;;;;2.13;1.80;;;16.40;99.90;;;;;;5031815;28;20434;-78
2023/07/20 03:52:21;;;;;;;3.00;1.23;;;16.40;99.90;;;;;;5032709;28;20178;-80
2023/07/20 03:54:46;;;;;;;2.40;1.20;;;16.40;99.90;;;;;;5032918;28;20180;-80
2023/07/20 03:57:11;;;;;;;2.43;1.20;;;16.40;99.90;;;;;;5032826;28;20172;-78
2023/07/20 03:59:38;;;;;;;1.70;1.23;;;16.40;99.90;;;;;;5032629;28;20960;-78
2023/07/20 04:02:05;;;;;;;2.20;1.60;;;16.40;99.90;;;;;;5035208;28;20549;-79
2023/07/20 04:04:31;;;;;;;3.05;1.80;;;16.40;99.90;;;;;;5032307;28;20511;-82
2023/07/20 04:06:56;;;;;;;2.67;1.93;;;16.50;99.90;;;;;;5031233;28;20217;-80
2023/07/20 04:09:22;;;;;;;2.83;2.13;;;16.60;99.90;;;;;;5032823;28;20176;-79
2023/07/20 04:11:47;;;;;;;3.20;1.90;;;16.60;99.90;;;;;;5032821;28;20173;-78
2023/07/20 04:14:13;;;;;;;2.27;1.57;;;16.60;99.90;;;;;;5032728;28;20251;-79
2023/07/20 04:16:38;;;;;;;1.73;1.13;;;16.60;99.90;;;;;;5043643;28;20179;-78
2023/07/20 04:19:04;;;;;;;2.87;1.80;;;16.60;99.90;;;;;;5052544;28;20648;-78
2023/07/20 04:21:29;;;;;;;2.93;1.20;;;16.50;99.90;;;;;;5037825;28;20181;-78
2023/07/20 04:23:55;;;;;;;1.47;0.93;;;16.50;99.90;;;;;;5032698;28;20179;-78
2023/07/20 04:26:20;;;;;;;1.90;0.87;;;16.60;99.90;;;;;;5049122;28;20267;-78
2023/07/20 04:28:47;;;;;;;1.47;1.17;;;16.50;99.90;;;;;;5041773;28;20187;-78
2023/07/20 04:31:13;;;;;;;3.60;1.10;;;16.50;99.90;;;;;;5037546;28;20171;-78
2023/07/20 04:33:39;;;;;;;2.30;1.10;;;16.60;99.90;;;;;;5042520;28;20834;-80
2023/07/20 04:36:05;;;;;;;3.73;2.13;;;16.60;99.90;;;;;;5040707;28;20468;-78
2023/07/20 04:38:31;;;;;;;1.93;1.70;;;16.60;99.90;;;;;;5041280;28;20527;-78
2023/07/20 04:40:56;;;;;;;3.37;1.47;;;16.60;99.90;;;;;;5042124;28;20427;-80
2023/07/20 04:43:22;;;;;;;3.50;1.30;;;16.60;99.90;;;;;;5043453;28;20180;-80
2023/07/20 04:45:47;;;;;;;2.50;1.30;;;16.70;99.90;;;;;;5050425;28;20191;-78
2023/07/20 04:48:15;;;;;;;1.77;0.87;;;16.70;99.90;;;;;;5044000;28;20544;-80
2023/07/20 04:50:42;;;;;;;2.40;1.27;;;16.80;99.90;;;;;;5051881;28;20202;-78
2023/07/20 04:53:10;;;;;;;3.33;1.97;;;16.80;99.90;;;;;;5051220;28;20429;-78
2023/07/20 04:55:36;;;;;;;3.10;2.00;;;16.80;99.90;;;;;;5052246;28;20438;-78
2023/07/20 04:58:03;;;;;;;2.63;2.33;;;16.80;99.90;;;;;;5052107;28;20830;-78
2023/07/20 05:00:29;;;;;;;1.73;1.17;;;16.90;99.90;;;;;;5052140;28;20429;-78
2023/07/20 05:02:55;;;;;;;1.40;0.80;;;16.90;99.90;;;;;;5052371;28;20475;-78
2023/07/20 05:05:21;;;;;;;3.57;1.73;;;16.90;99.90;;;;;;5052065;28;20519;-78
2023/07/20 05:07:46;;;;;;;1.60;1.20;;;17.00;99.90;;;;;;5055918;28;20498;-78
2023/07/20 05:10:12;;;;;;;3.03;1.40;;;17.00;99.90;;;;;;5054495;28;20171;-78
2023/07/20 05:12:37;;;;;;;2.47;1.00;;;17.10;99.90;;;;;;5055786;28;20179;-79
2023/07/20 05:15:03;;;;;;;2.23;1.00;;;17.00;99.90;;;;;;5055730;28;20539;-78
2023/07/20 05:17:29;;;;;;;1.77;0.90;;;17.10;99.90;;;;;;5055749;28;20171;-78
2023/07/20 05:19:54;;;;;;;1.80;1.03;;;17.10;99.90;;;;;;5055679;28;20418;-79
2023/07/20 05:22:20;;;;;;;3.70;1.13;;;17.20;99.90;;;;;;5055382;28;20170;-78
2023/07/20 05:24:45;;;;;;;1.80;0.90;;;17.30;99.90;;;;;;5055625;28;20190;-78
2023/07/20 05:27:11;;;;;;;1.93;0.70;;;17.30;99.90;;;;;;5055557;28;20537;-78
2023/07/20 05:29:36;;;;;;;1.57;0.40;;;17.30;99.90;;;;;;5055622;28;20203;-78
2023/07/20 05:32:02;;;;;;;1.80;1.20;;;17.30;99.90;;;;;;5055553;28;20217;-77
2023/07/20 05:34:28;;;;;;;1.63;0.50;;;17.40;99.90;;;;;;5055399;28;20184;-80
2023/07/20 05:36:54;;;;;;;1.40;0.70;;;17.40;99.90;;;;;;5054980;28;20415;-78
2023/07/20 05:39:20;;;;;;;2.37;0.83;;;17.40;99.90;;;;;;5055184;28;20215;-77
2023/07/20 05:41:45;;;;;;;2.27;1.13;;;17.40;99.90;;;;;;5055094;28;20768;-78
2023/07/20 05:44:11;;;;;;;2.33;0.87;;;17.50;99.90;;;;;;5055224;28;20180;-79
2023/07/20 05:46:36;;;;;;;2.77;0.80;;;17.60;99.90;;;;;;5054946;28;20207;-79
2023/07/20 05:49:02;;;;;;;2.47;0.90;;;17.70;99.90;;;;;;5054386;28;20184;-79
2023/07/20 05:51:27;;;;;;;2.97;1.07;;;17.90;99.90;;;;;;5054242;28;20222;-79
2023/07/20 05:53:53;;;;;;;1.03;0.60;;;17.90;99.90;;;;;;5054964;28;20171;-78
2023/07/20 05:56:18;;;;;;;1.60;1.10;;;18.00;99.90;;;;;;5054903;28;20266;-79
2023/07/20 05:58:44;;;;;;;1.37;0.70;;;18.10;99.90;;;;;;5054871;28;20208;-79
2023/07/20 06:01:09;;;;;;;3.53;1.33;;;18.20;99.90;;;;;;5054740;28;20211;-79
2023/07/20 06:03:35;;;;;;;1.93;1.40;;;18.40;99.90;;;;;;5054840;28;20177;-81
2023/07/20 06:06:01;;;;;;;2.43;1.30;;;18.70;99.90;;;;;;5054443;28;20223;-83
2023/07/20 06:08:28;;;;;;;4.07;1.10;;;18.90;99.90;;;;;;5054655;28;20185;-80
2023/07/20 06:10:53;;;;;;;3.03;1.80;;;19.10;99.90;;;;;;5054735;28;20404;-82
2023/07/20 06:13:19;;;;;;;2.23;1.10;;;19.40;99.90;;;;;;5054588;28;20416;-80
2023/07/20 06:15:44;;;;;;;2.17;1.30;;;19.70;99.90;;;;;;5054701;28;20169;-82
2023/07/20 06:18:10;;;;;;;1.87;1.00;;;19.80;99.90;;;;;;5052167;28;20204;-80
2023/07/20 06:20:35;;;;;;;4.83;1.77;;;19.80;94.10;;;;;;5054212;28;20533;-84
2023/07/20 06:23:01;;;;;;;1.43;1.33;;;19.80;93.40;;;;;;5054564;28;20177;-81
2023/07/20 06:25:26;;;;;;;1.63;1.00;;;19.90;46.30;;;;;;5054367;28;20179;-81
2023/07/20 06:27:52;;;;;;;2.60;1.10;;;19.90;1.00;;;;;;5054304;28;20181;-82
2023/07/20 06:30:18;;;;;;;2.97;1.07;;;19.90;1.00;;;;;;5054498;28;20205;-79
2023/07/20 06:32:43;;;;;;;4.67;1.07;;;19.90;1.00;;;;;;5054281;28;20193;-81
2023/07/20 06:35:09;;;;;;;1.50;0.97;;;20.10;21.20;;;;;;5053840;28;20473;-79
2023/07/20 06:37:35;;;;;;;2.10;1.00;;;20.20;1.00;;;;;;5054165;28;20252;-83
2023/07/20 06:40:03;;;;;;;1.60;0.60;;;20.30;1.00;;;;;;5052916;28;20273;-84
2023/07/20 06:42:28;;;;;;;2.97;1.30;;;20.40;1.00;;;;;;5054059;28;20408;-82
2023/07/20 06:44:53;;;;;;;1.20;0.40;;;20.50;1.00;;;;;;5053962;28;20512;-79
2023/07/20 06:47:19;;;;;;;3.43;0.93;;;20.70;1.00;;;;;;5054065;28;20177;-83
2023/07/20 06:49:44;;;;;;;6.47;0.90;;;20.70;1.00;;;;;;5052701;28;20172;-80
2023/07/20 06:52:10;;;;;;;4.20;0.93;;;20.70;1.00;;;;;;5053556;28;20202;-83
2023/07/20 06:54:35;;;;;;;1.93;0.40;;;21.00;1.00;;;;;;5053924;28;20220;-84
2023/07/20 06:57:01;;;;;;;1.13;0.40;;;21.30;99.90;;;;;;5053817;28;20551;-83
2023/07/20 06:59:26;;;;;;;1.87;0.40;;;21.30;1.00;;;;;;5054056;28;20269;-88
2023/07/20 07:01:52;;;;;;;1.43;0.30;;;21.30;1.00;;;;;;5054014;28;20674;-88
2023/07/20 07:04:17;;;;;;;1.83;1.00;;;21.20;99.90;;;;;;5052847;28;20170;-90
2023/07/20 07:06:44;;;;;;;1.67;0.40;;;21.20;1.00;;;;;;5054049;28;20654;-79
2023/07/20 07:09:09;;;;;;;1.73;0.30;;;21.40;1.00;;;;;;5052347;28;20309;-79
2023/07/20 07:11:35;;;;;;;2.77;0.30;;;21.40;29.00;;;;;;5053678;28;20879;-78
2023/07/20 07:14:00;;;;;;;1.83;0.60;;;21.40;99.90;;;;;;5053530;28;20583;-77
2023/07/20 07:16:26;;;;;;;3.40;0.43;;;21.20;1.00;;;;;;5053511;28;20177;-80
2023/07/20 07:18:51;;;;;;;1.07;0.20;;;21.00;99.90;;;;;;5053384;28;20248;-81
2023/07/20 07:21:17;;;;;;;1.43;0.23;;;21.00;1.00;;;;;;5053153;28;20166;-84
2023/07/20 07:23:43;;;;;;;2.90;0.20;;;21.40;1.00;;;;;;5035182;28;20659;-82
2023/07/20 07:26:09;;;;;;;1.20;0.23;;;22.00;99.90;;;;;;5033407;28;20517;-81
2023/07/20 07:28:38;;;;;;;2.30;0.47;;;22.70;1.00;;;;;;5033029;28;20755;-82
2023/07/20 07:31:07;;;;;;;1.53;0.30;;;23.60;1.00;;;;;;5032818;28;20850;-86
2023/07/20 07:33:35;;;;;;;2.03;0.40;;;24.30;1.00;;;;;;5035179;28;20813;-81
2023/07/20 07:36:01;;;;;;;3.77;0.33;;;24.70;1.00;;;;;;5031744;28;20424;-81
2023/07/20 07:38:26;;;;;;;0.97;0.20;;;25.00;99.90;;;;;;5032008;28;20792;-85
2023/07/20 07:40:51;;;;;;;2.87;0.50;;;24.90;99.90;;;;;;5033168;28;20170;-81
2023/07/20 07:43:17;;;;;;;0.60;0.20;;;24.60;99.90;;;;;;5033216;28;20249;-83
2023/07/20 07:45:43;;;;;;;1.33;0.20;;;24.80;99.90;;;;;;5033174;28;20166;-82
2023/07/20 07:48:11;;;;;;;1.10;0.40;;;25.30;99.90;;;;;;5033162;28;20501;-83
2023/07/20 07:50:37;;;;;;;2.00;0.40;;;25.90;99.90;;;;;;5032762;28;20193;-83
2023/07/20 07:53:03;;;;;;;2.73;0.30;;;26.30;99.90;;;;;;5033129;28;20452;-82
2023/07/20 07:55:28;;;;;;;1.73;0.30;;;26.60;99.90;;;;;;5033069;28;20173;-82
2023/07/20 07:57:54;;;;;;;1.30;0.30;;;26.90;99.90;;;;;;5032933;28;20456;-81
2023/07/20 08:00:20;;;;;;;1.17;0.50;;;26.90;99.90;;;;;;5032801;28;20545;-82
2023/07/20 08:02:48;;;;;;;1.73;0.30;;;27.00;99.90;;;;;;5033023;28;20272;-80
2023/07/20 08:05:14;;;;;;;2.50;0.40;;;27.30;99.90;;;;;;5032634;28;20627;-82
2023/07/20 08:07:43;;;;;;;0.97;0.30;;;27.50;99.90;;;;;;5032890;28;20419;-82
2023/07/20 08:10:09;;;;;;;1.00;0.20;;;27.20;99.90;;;;;;5032905;28;20710;-81
2023/07/20 08:12:35;;;;;;;1.77;0.30;;;26.50;99.90;;;;;;5032716;28;20500;-80
2023/07/20 08:15:00;;;;;;;2.53;0.50;;;25.70;99.90;;;;;;5032838;28;20429;-81
2023/07/20 08:17:26;;;;;;;2.10;0.57;;;24.90;99.90;;;;;;5032676;28;20282;-82
2023/07/20 08:19:51;;;;;;;3.80;2.00;;;24.40;99.90;;;;;;5032148;28;20222;-82
2023/07/20 08:22:17;;;;;;;2.00;0.40;;;24.40;99.90;;;;;;5032716;28;20166;-82
2023/07/20 08:24:43;;;;;;;3.90;0.60;;;25.00;99.90;;;;;;5031501;28;20185;-81
2023/07/20 08:27:09;;;;;;;2.03;0.40;;;25.70;99.90;;;;;;5032753;28;20177;-81
2023/07/20 08:29:35;;;;;;;3.23;0.60;;;26.50;99.90;;;;;;5032750;28;20444;-83
2023/07/20 08:32:02;;;;;;;2.87;0.50;;;26.80;99.90;;;;;;5032643;28;20437;-81
2023/07/20 08:34:27;;;;;;;1.97;0.60;;;27.30;99.90;;;;;;5032569;28;20421;-79
2023/07/20 08:36:53;;;;;;;2.10;0.90;;;27.30;99.90;;;;;;5032309;28;20924;-81
2023/07/20 08:39:18;;;;;;;3.80;0.60;;;26.80;99.90;;;;;;5032473;28;20236;-81
2023/07/20 08:41:44;;;;;;;1.70;0.30;;;26.30;99.90;;;;;;5031659;28;20249;-83
2023/07/20 08:44:10;;;;;;;2.30;0.60;;;26.70;99.90;;;;;;5055513;28;20170;-82
2023/07/20 08:46:38;;;;;;;1.27;0.40;;;27.20;99.90;;;;;;5055445;28;20255;-82
2023/07/20 08:49:04;;;;;;;2.03;0.50;;;28.00;99.90;;;;;;5055388;28;20478;-82
2023/07/20 08:51:31;;;;;;;1.63;0.60;;;28.50;99.90;;;;;;5054998;28;20493;-81
2023/07/20 08:53:58;;;;;;;1.90;0.40;;;29.20;99.90;;;;;;5055316;28;20916;-83
2023/07/20 08:56:26;;;;;;;1.70;1.00;;;29.70;99.90;;;;;;5055249;28;20411;-82
2023/07/20 08:58:53;;;;;;;4.70;0.73;;;30.20;99.90;;;;;;5055837;28;20478;-90
2023/07/20 09:01:19;;;;;;;1.90;0.57;;;30.80;99.90;;;;;;5055507;28;20464;-82
2023/07/20 09:03:46;;;;;;;4.43;0.83;;;30.80;99.90;;;;;;5056240;28;20478;-93
2023/07/20 09:06:12;;;;;;;4.13;1.10;;;30.60;99.90;;;;;;5052781;28;20515;-84
2023/07/20 09:08:41;;;;;;;1.87;0.70;;;30.10;99.90;;;;;;5054359;28;20523;-87
2023/07/20 09:11:06;;;;;;;3.90;1.00;;;29.20;99.90;;;;;;5054130;28;20227;-84
2023/07/20 09:13:33;;;;;;;3.90;1.70;;;28.20;99.90;;;;;;5055150;28;20412;-82
2023/07/20 09:15:59;;;;;;;2.50;1.07;;;27.30;99.90;;;;;;5055275;28;20173;-83
2023/07/20 09:18:26;;;;;;;1.20;0.73;;;26.40;99.90;;;;;;5055095;28;20475;-81
2023/07/20 09:20:52;;;;;;;2.80;1.10;;;26.00;99.90;;;;;;5054615;28;20244;-89
2023/07/20 09:23:17;;;;;;;2.47;0.77;;;25.90;99.90;;;;;;5054698;28;20511;-82
2023/07/20 09:25:43;;;;;;;2.30;0.97;;;26.60;99.90;;;;;;5054496;28;20166;-82
2023/07/20 09:28:12;;;;;;;4.10;1.00;;;27.50;99.90;;;;;;5054504;28;20780;-90
2023/07/20 09:30:40;;;;;;;3.63;0.83;;;28.40;99.90;;;;;;5055748;28;20189;-87
2023/07/20 09:33:18;;;;;;;3.23;0.40;;;29.30;99.90;;;;;;5057048;28;20427;-93
2023/07/20 09:35:43;;;;;;;2.90;0.70;;;30.00;99.90;;;;;;5058288;28;20820;-94
2023/07/20 09:38:09;;;;;;;2.87;0.80;;;30.30;99.90;;;;;;5053226;28;20542;-81
2023/07/20 09:40:38;;;;;;;1.53;0.50;;;31.10;99.90;;;;;;5054264;28;20234;-89
2023/07/20 09:43:08;;;;;;;3.37;0.43;;;31.80;99.90;;;;;;5054635;28;20170;-80
2023/07/20 09:45:36;;;;;;;2.87;0.53;;;32.30;99.90;;;;;;5053771;28;20414;-90
2023/07/20 09:48:06;;;;;;;2.00;0.37;;;32.80;99.90;;;;;;5053981;28;20412;-90
2023/07/20 09:50:32;;;;;;;3.93;0.63;;;33.40;99.90;;;;;;5055088;28;20507;-81
2023/07/20 09:53:00;;;;;;;3.03;0.50;;;33.60;99.90;;;;;;5053864;28;20424;-90
2023/07/20 09:55:29;;;;;;;2.03;0.57;;;33.30;99.90;;;;;;5056000;28;20412;-83
2023/07/20 09:57:56;;;;;;;5.23;1.33;;;32.30;99.90;;;;;;5053217;28;20423;-87
2023/07/20 10:00:21;;;;;;;2.40;0.87;;;30.80;99.90;;;;;;5053815;28;20425;-82
2023/07/20 10:02:51;;;;;;;3.50;0.90;;;29.40;99.90;;;;;;5069313;28;20532;-83
2023/07/20 10:05:18;;;;;;;1.87;0.60;;;27.90;99.90;;;;;;5053459;28;20646;-81
2023/07/20 10:07:48;;;;;;;4.07;0.93;;;26.70;99.90;;;;;;5053811;28;20418;-80
2023/07/20 10:10:16;;;;;;;4.80;0.80;;;25.90;99.90;;;;;;5053826;28;20427;-81
2023/07/20 10:12:44;;;;;;;3.73;0.63;;;24.90;99.90;;;;;;5051671;28;20955;-79
2023/07/20 10:15:36;;;;;;;3.17;0.47;;;24.60;99.90;;;;;;5046088;28;20416;-79
2023/07/20 10:18:48;;;;;;;1.10;0.37;;;24.30;99.90;;;;;;5044324;28;20463;-80
2023/07/20 10:21:19;;;;;;;1.43;0.50;;;24.20;99.90;;;;;;5030875;28;20433;-79
2023/07/20 10:23:45;;;;;;;1.20;0.27;;;24.70;1.00;;;;;;5033940;28;20412;-84
2023/07/20 10:26:17;;;;;;;3.30;0.40;;;25.60;1.00;;;;;;5032095;28;20503;-79
2023/07/20 10:28:43;;;;;;;1.37;0.40;;;26.60;99.90;;;;;;5032766;28;20504;-82
2023/07/20 10:31:11;;;;;;;1.97;0.43;;;27.70;99.90;;;;;;5031725;28;20984;-81
2023/07/20 10:33:41;;;;;;;3.30;0.53;;;28.30;99.90;;;;;;5037988;28;20506;-79
2023/07/20 10:36:06;;;;;;;3.20;0.60;;;29.20;99.90;;;;;;5051208;28;20482;-80
2023/07/20 10:38:47;;;;;;;2.13;0.67;;;29.70;99.90;;;;;;5053188;28;20483;-81
2023/07/20 10:41:29;;;;;;;3.50;0.40;;;30.10;99.90;;;;;;5053035;28;20173;-79
2023/07/20 10:44:13;;;;;;;1.07;0.27;;;30.40;99.90;;;;;;5052895;28;20823;-80
2023/07/20 10:46:38;;;;;;;1.63;0.43;;;30.10;99.90;;;;;;5042286;28;20757;-82
2023/07/20 10:49:06;;;;;;;2.27;0.40;;;30.10;99.90;;;;;;5043026;28;20474;-85
2023/07/20 10:51:48;;;;;;;2.53;0.43;;;30.20;99.90;;;;;;5041605;28;20181;-83
2023/07/20 10:54:17;;;;;;;2.40;0.20;;;29.80;99.90;;;;;;5072953;28;20431;-83
2023/07/20 10:56:43;;;;;;;2.67;0.30;;;29.80;99.90;;;;;;5041758;28;20440;-82
2023/07/20 10:59:27;;;;;;;1.50;0.27;;;30.10;99.90;;;;;;5042846;28;20469;-82
2023/07/20 11:01:59;;;;;;;2.20;0.40;;;30.80;99.90;;;;;;5043036;28;20539;-89
2023/07/20 11:04:47;;;;;;;1.93;0.20;;;31.10;99.90;;;;;;5039012;28;20431;-91
2023/07/20 11:07:17;;;;;;;4.60;0.83;;;31.00;99.90;;;;;;5075578;28;20781;-93
2023/07/20 11:09:43;;;;;;;2.50;0.30;;;30.30;99.90;;;;;;5041294;28;20467;-82
2023/07/20 11:12:13;;;;;;;1.80;0.30;;;29.30;99.90;;;;;;5041380;28;20875;-91
2023/07/20 11:14:43;;;;;;;1.23;0.20;;;28.20;99.90;;;;;;5033004;28;20274;-82
2023/07/20 11:17:15;;;;;;;1.57;0.20;;;27.60;99.90;;;;;;5032612;28;20421;-85
2023/07/20 11:19:41;;;;;;;0.63;0.20;;;27.40;99.90;;;;;;5032555;28;20476;-83
2023/07/20 11:22:09;;;;;;;1.47;0.20;;;27.40;99.90;;;;;;5032454;28;20424;-81
2023/07/20 11:24:39;;;;;;;1.63;0.30;;;27.40;99.90;;;;;;5032566;28;20521;-83
2023/07/20 11:27:04;;;;;;;3.23;0.30;;;27.20;99.90;;;;;;5032226;28;20415;-82
2023/07/20 11:29:33;;;;;;;1.87;0.30;;;27.10;99.90;;;;;;5032479;28;20779;-81
2023/07/20 11:31:59;;;;;;;1.40;0.23;;;27.10;99.90;;;;;;5032630;28;20611;-91
2023/07/20 11:34:24;;;;;;;2.00;0.30;;;27.20;99.90;;;;;;5031283;28;20447;-82
2023/07/20 11:36:51;;;;;;;0.87;0.20;;;27.10;99.90;;;;;;5032404;28;20412;-80
2023/07/20 11:39:21;;;;;;;0.50;0.20;;;26.50;99.90;;;;;;5032151;28;20706;-84
2023/07/20 11:41:52;;;;;;;0.57;0.20;;;25.90;99.90;;;;;;5047535;28;20444;-85
2023/07/20 11:44:19;;;;;;;1.80;0.20;;;25.50;99.90;;;;;;5031990;28;20417;-84
2023/07/20 11:46:45;;;;;;;1.80;0.20;;;24.90;99.90;;;;;;5048246;28;20667;-83
2023/07/20 11:49:11;;;;;;;0.77;0.20;;;24.40;99.90;;;;;;5050223;28;20458;-83
2023/07/20 11:51:38;;;;;;;1.73;0.20;;;24.10;99.90;;;;;;5050611;28;20467;-83
2023/07/20 11:54:08;;;;;;;0.60;0.20;;;23.90;99.90;;;;;;5051515;28;20489;-84
2023/07/20 11:56:34;;;;;;;2.00;0.20;;;23.70;99.90;;;;;;5051729;28;20448;-85
2023/07/20 11:59:01;;;;;;;1.90;0.20;;;23.50;99.90;;;;;;5050853;28;20514;-86
2023/07/20 12:01:35;;;;;;;1.07;0.20;;;23.70;99.90;;;;;;5052289;28;20226;-81
2023/07/20 12:04:02;;;;;;;0.50;0.20;;;24.00;99.90;;;;;;5051090;28;20499;-78
2023/07/20 12:06:29;;;;;;;1.57;0.50;;;24.30;99.90;;;;;;5052304;28;20828;-78
2023/07/20 12:08:57;;;;;;;1.83;0.20;;;24.40;99.90;;;;;;5052441;28;20785;-78
2023/07/20 12:11:35;;;;;;;2.47;0.30;;;24.80;99.90;;;;;;5051973;28;20992;-80
2023/07/20 12:14:02;;;;;;;1.63;0.30;;;25.30;99.90;;;;;;5067874;28;20428;-79
2023/07/20 12:16:29;;;;;;;0.90;0.30;;;25.50;99.90;;;;;;5054129;28;20477;-79
2023/07/20 12:19:08;;;;;;;1.60;0.40;;;25.70;99.90;;;;;;5056382;28;21030;-80
2023/07/20 12:21:36;;;;;;;0.97;0.20;;;25.80;99.90;;;;;;5056455;28;20507;-78
2023/07/20 12:24:03;;;;;;;1.63;0.47;;;26.00;99.90;;;;;;5056319;28;20433;-80
2023/07/20 12:26:29;;;;;;;0.60;0.20;;;26.00;99.90;;;;;;5056186;28;20435;-80
2023/07/20 12:28:55;;;;;;;2.10;0.30;;;26.10;99.90;;;;;;5056175;28;20479;-79
2023/07/20 12:31:22;;;;;;;1.97;0.37;;;26.30;99.90;;;;;;5056297;28;20503;-80
2023/07/20 12:33:57;;;;;;;2.30;0.20;;;26.60;99.90;;;;;;5056141;28;20174;-79
2023/07/20 12:36:23;;;;;;;2.70;0.40;;;26.90;99.90;;;;;;5056226;28;20435;-81
2023/07/20 12:38:49;;;;;;;1.17;0.30;;;27.10;99.90;;;;;;5055582;28;20513;-80
2023/07/20 12:41:14;;;;;;;1.77;0.20;;;26.80;99.90;;;;;;5055980;28;20188;-81
2023/07/20 12:43:41;;;;;;;1.10;0.20;;;26.70;99.90;;;;;;5150938;22;20228;-81
2023/07/20 12:46:07;;;;;;;2.23;0.40;;;26.70;99.90;;;;;;5096483;28;20222;-80
2023/07/20 12:48:33;;;;;;;3.50;0.50;;;26.60;99.90;;;;;;5096567;28;20432;-80